sensor_id;sensor_type;location;lat;lon;timestamp;P1;durP1;ratioP1;P2;durP2;ratioP2
62092;SDS011;59819;52.976;6.846;2022-08-21T00:00:36;17.45;;;7.47;;
62092;SDS011;59819;52.976;6.846;2022-08-21T00:03:04;9.60;;;7.55;;
62092;SDS011;59819;52.976;6.846;2022-08-21T00:05:31;11.18;;;7.68;;
62092;SDS011;59819;52.976;6.846;2022-08-21T00:07:58;7.32;;;6.30;;
62092;SDS011;59819;52.976;6.846;2022-08-21T00:10:24;11.60;;;7.57;;
62092;SDS011;59819;52.976;6.846;2022-08-21T00:12:50;8.02;;;6.45;;
62092;SDS011;59819;52.976;6.846;2022-08-21T00:15:18;9.10;;;7.13;;
62092;SDS011;59819;52.976;6.846;2022-08-21T00:17:44;8.80;;;7.45;;
62092;SDS011;59819;52.976;6.846;2022-08-21T00:20:11;9.23;;;7.30;;
62092;SDS011;59819;52.976;6.846;2022-08-21T00:22:37;8.35;;;6.70;;
62092;SDS011;59819;52.976;6.846;2022-08-21T00:25:04;8.05;;;7.10;;
62092;SDS011;59819;52.976;6.846;2022-08-21T00:27:31;10.25;;;7.13;;
62092;SDS011;59819;52.976;6.846;2022-08-21T00:29:57;9.63;;;7.13;;
62092;SDS011;59819;52.976;6.846;2022-08-21T00:32:23;10.30;;;7.40;;
62092;SDS011;59819;52.976;6.846;2022-08-21T00:34:49;7.75;;;6.95;;
62092;SDS011;59819;52.976;6.846;2022-08-21T00:37:15;9.27;;;6.95;;
62092;SDS011;59819;52.976;6.846;2022-08-21T00:39:41;10.25;;;7.03;;
62092;SDS011;59819;52.976;6.846;2022-08-21T00:42:08;8.88;;;7.10;;
62092;SDS011;59819;52.976;6.846;2022-08-21T00:44:34;11.38;;;7.38;;
62092;SDS011;59819;52.976;6.846;2022-08-21T00:47:00;8.73;;;6.60;;
62092;SDS011;59819;52.976;6.846;2022-08-21T00:49:26;8.27;;;6.78;;
62092;SDS011;59819;52.976;6.846;2022-08-21T00:51:57;10.10;;;7.18;;
62092;SDS011;59819;52.976;6.846;2022-08-21T00:54:24;11.48;;;8.32;;
62092;SDS011;59819;52.976;6.846;2022-08-21T00:56:54;10.13;;;7.25;;
62092;SDS011;59819;52.976;6.846;2022-08-21T00:59:21;11.38;;;7.55;;
62092;SDS011;59819;52.976;6.846;2022-08-21T01:01:49;13.40;;;8.07;;
62092;SDS011;59819;52.976;6.846;2022-08-21T01:04:17;10.77;;;7.28;;
62092;SDS011;59819;52.976;6.846;2022-08-21T01:06:43;8.57;;;7.30;;
62092;SDS011;59819;52.976;6.846;2022-08-21T01:09:09;9.23;;;7.43;;
62092;SDS011;59819;52.976;6.846;2022-08-21T01:11:36;8.73;;;7.47;;
62092;SDS011;59819;52.976;6.846;2022-08-21T01:14:02;9.07;;;6.93;;
62092;SDS011;59819;52.976;6.846;2022-08-21T01:16:28;10.43;;;7.78;;
62092;SDS011;59819;52.976;6.846;2022-08-21T01:18:54;9.60;;;7.63;;
62092;SDS011;59819;52.976;6.846;2022-08-21T01:21:22;10.05;;;7.85;;
62092;SDS011;59819;52.976;6.846;2022-08-21T01:23:50;11.05;;;7.90;;
62092;SDS011;59819;52.976;6.846;2022-08-21T01:26:18;7.38;;;6.38;;
62092;SDS011;59819;52.976;6.846;2022-08-21T01:28:55;10.43;;;7.65;;
62092;SDS011;59819;52.976;6.846;2022-08-21T01:31:23;11.27;;;7.68;;
62092;SDS011;59819;52.976;6.846;2022-08-21T01:33:49;9.93;;;7.72;;
62092;SDS011;59819;52.976;6.846;2022-08-21T01:36:15;9.82;;;7.90;;
62092;SDS011;59819;52.976;6.846;2022-08-21T01:38:41;8.95;;;7.10;;
62092;SDS011;59819;52.976;6.846;2022-08-21T01:41:07;9.02;;;8.05;;
62092;SDS011;59819;52.976;6.846;2022-08-21T01:43:33;8.95;;;8.00;;
62092;SDS011;59819;52.976;6.846;2022-08-21T01:45:59;10.35;;;7.93;;
62092;SDS011;59819;52.976;6.846;2022-08-21T01:48:25;11.25;;;8.10;;
62092;SDS011;59819;52.976;6.846;2022-08-21T01:50:51;8.27;;;7.47;;
62092;SDS011;59819;52.976;6.846;2022-08-21T01:53:17;12.43;;;8.55;;
62092;SDS011;59819;52.976;6.846;2022-08-21T01:55:44;9.10;;;7.53;;
62092;SDS011;59819;52.976;6.846;2022-08-21T01:58:10;8.52;;;7.15;;
62092;SDS011;59819;52.976;6.846;2022-08-21T02:00:36;8.40;;;7.07;;
62092;SDS011;59819;52.976;6.846;2022-08-21T02:03:03;7.85;;;7.00;;
62092;SDS011;59819;52.976;6.846;2022-08-21T02:05:29;9.30;;;7.28;;
62092;SDS011;59819;52.976;6.846;2022-08-21T02:07:55;12.82;;;8.45;;
62092;SDS011;59819;52.976;6.846;2022-08-21T02:10:22;10.63;;;7.82;;
62092;SDS011;59819;52.976;6.846;2022-08-21T02:12:49;12.30;;;8.27;;
62092;SDS011;59819;52.976;6.846;2022-08-21T02:15:15;10.95;;;8.85;;
62092;SDS011;59819;52.976;6.846;2022-08-21T02:17:43;10.85;;;8.32;;
62092;SDS011;59819;52.976;6.846;2022-08-21T02:20:10;10.35;;;7.95;;
62092;SDS011;59819;52.976;6.846;2022-08-21T02:22:37;8.40;;;7.45;;
62092;SDS011;59819;52.976;6.846;2022-08-21T02:25:03;11.18;;;8.60;;
62092;SDS011;59819;52.976;6.846;2022-08-21T02:27:29;9.75;;;7.32;;
62092;SDS011;59819;52.976;6.846;2022-08-21T02:30:02;8.65;;;7.75;;
62092;SDS011;59819;52.976;6.846;2022-08-21T02:32:29;7.82;;;6.82;;
62092;SDS011;59819;52.976;6.846;2022-08-21T02:34:56;7.32;;;6.32;;
62092;SDS011;59819;52.976;6.846;2022-08-21T02:37:22;8.10;;;6.50;;
62092;SDS011;59819;52.976;6.846;2022-08-21T02:39:48;10.18;;;8.00;;
62092;SDS011;59819;52.976;6.846;2022-08-21T02:42:15;13.98;;;9.25;;
62092;SDS011;59819;52.976;6.846;2022-08-21T02:44:41;12.10;;;9.57;;
62092;SDS011;59819;52.976;6.846;2022-08-21T02:47:07;8.65;;;7.85;;
62092;SDS011;59819;52.976;6.846;2022-08-21T02:49:33;11.27;;;8.50;;
62092;SDS011;59819;52.976;6.846;2022-08-21T02:51:59;8.65;;;7.80;;
62092;SDS011;59819;52.976;6.846;2022-08-21T02:54:25;11.18;;;9.48;;
62092;SDS011;59819;52.976;6.846;2022-08-21T02:56:52;10.45;;;8.60;;
62092;SDS011;59819;52.976;6.846;2022-08-21T02:59:18;10.73;;;8.35;;
62092;SDS011;59819;52.976;6.846;2022-08-21T03:01:44;9.25;;;7.95;;
62092;SDS011;59819;52.976;6.846;2022-08-21T03:04:10;10.07;;;9.02;;
62092;SDS011;59819;52.976;6.846;2022-08-21T03:06:36;14.07;;;9.95;;
62092;SDS011;59819;52.976;6.846;2022-08-21T03:09:02;11.98;;;9.05;;
62092;SDS011;59819;52.976;6.846;2022-08-21T03:11:29;8.75;;;7.50;;
62092;SDS011;59819;52.976;6.846;2022-08-21T03:13:55;9.98;;;7.97;;
62092;SDS011;59819;52.976;6.846;2022-08-21T03:16:21;14.68;;;9.60;;
62092;SDS011;59819;52.976;6.846;2022-08-21T03:18:47;11.90;;;8.18;;
62092;SDS011;59819;52.976;6.846;2022-08-21T03:21:13;11.25;;;8.35;;
62092;SDS011;59819;52.976;6.846;2022-08-21T03:23:39;11.38;;;9.23;;
62092;SDS011;59819;52.976;6.846;2022-08-21T03:26:07;12.13;;;8.65;;
62092;SDS011;59819;52.976;6.846;2022-08-21T03:28:33;10.98;;;9.25;;
62092;SDS011;59819;52.976;6.846;2022-08-21T03:30:59;11.25;;;9.05;;
62092;SDS011;59819;52.976;6.846;2022-08-21T03:33:25;15.25;;;10.38;;
62092;SDS011;59819;52.976;6.846;2022-08-21T03:35:54;13.02;;;10.30;;
62092;SDS011;59819;52.976;6.846;2022-08-21T03:38:21;15.20;;;10.88;;
62092;SDS011;59819;52.976;6.846;2022-08-21T03:40:47;11.95;;;10.50;;
62092;SDS011;59819;52.976;6.846;2022-08-21T03:43:13;11.90;;;10.63;;
62092;SDS011;59819;52.976;6.846;2022-08-21T03:45:39;15.27;;;12.25;;
62092;SDS011;59819;52.976;6.846;2022-08-21T03:48:05;17.52;;;12.77;;
62092;SDS011;59819;52.976;6.846;2022-08-21T03:50:32;14.35;;;12.15;;
62092;SDS011;59819;52.976;6.846;2022-08-21T03:52:59;14.50;;;11.73;;
62092;SDS011;59819;52.976;6.846;2022-08-21T03:55:25;18.55;;;12.85;;
62092;SDS011;59819;52.976;6.846;2022-08-21T03:57:52;15.02;;;12.40;;
62092;SDS011;59819;52.976;6.846;2022-08-21T04:00:18;13.27;;;11.82;;
62092;SDS011;59819;52.976;6.846;2022-08-21T04:02:45;15.90;;;13.10;;
62092;SDS011;59819;52.976;6.846;2022-08-21T04:05:12;12.27;;;10.98;;
62092;SDS011;59819;52.976;6.846;2022-08-21T04:07:38;14.43;;;12.93;;
62092;SDS011;59819;52.976;6.846;2022-08-21T04:10:05;20.77;;;15.65;;
62092;SDS011;59819;52.976;6.846;2022-08-21T04:12:31;16.88;;;14.30;;
62092;SDS011;59819;52.976;6.846;2022-08-21T04:14:57;18.95;;;16.35;;
62092;SDS011;59819;52.976;6.846;2022-08-21T04:17:23;15.40;;;13.85;;
62092;SDS011;59819;52.976;6.846;2022-08-21T04:19:49;17.73;;;15.30;;
62092;SDS011;59819;52.976;6.846;2022-08-21T04:22:16;18.52;;;15.35;;
62092;SDS011;59819;52.976;6.846;2022-08-21T04:24:42;17.85;;;14.95;;
62092;SDS011;59819;52.976;6.846;2022-08-21T04:27:08;17.08;;;15.00;;
62092;SDS011;59819;52.976;6.846;2022-08-21T04:29:34;17.77;;;15.10;;
62092;SDS011;59819;52.976;6.846;2022-08-21T04:32:00;19.02;;;15.85;;
62092;SDS011;59819;52.976;6.846;2022-08-21T04:34:26;17.65;;;15.18;;
62092;SDS011;59819;52.976;6.846;2022-08-21T04:36:52;21.88;;;16.60;;
62092;SDS011;59819;52.976;6.846;2022-08-21T04:39:18;16.83;;;14.75;;
62092;SDS011;59819;52.976;6.846;2022-08-21T04:41:44;17.30;;;15.27;;
62092;SDS011;59819;52.976;6.846;2022-08-21T04:44:10;25.42;;;16.67;;
62092;SDS011;59819;52.976;6.846;2022-08-21T04:46:36;17.35;;;15.48;;
62092;SDS011;59819;52.976;6.846;2022-08-21T04:49:02;19.42;;;15.52;;
62092;SDS011;59819;52.976;6.846;2022-08-21T04:51:29;18.65;;;15.45;;
62092;SDS011;59819;52.976;6.846;2022-08-21T04:54:00;18.42;;;14.70;;
62092;SDS011;59819;52.976;6.846;2022-08-21T04:56:29;19.75;;;16.42;;
62092;SDS011;59819;52.976;6.846;2022-08-21T04:58:57;19.83;;;15.50;;
62092;SDS011;59819;52.976;6.846;2022-08-21T05:01:24;19.60;;;16.30;;
62092;SDS011;59819;52.976;6.846;2022-08-21T05:03:52;22.58;;;16.00;;
62092;SDS011;59819;52.976;6.846;2022-08-21T05:06:20;21.75;;;16.05;;
62092;SDS011;59819;52.976;6.846;2022-08-21T05:08:47;18.15;;;15.20;;
62092;SDS011;59819;52.976;6.846;2022-08-21T05:11:14;18.65;;;15.50;;
62092;SDS011;59819;52.976;6.846;2022-08-21T05:13:40;21.50;;;16.10;;
62092;SDS011;59819;52.976;6.846;2022-08-21T05:16:06;17.35;;;15.40;;
62092;SDS011;59819;52.976;6.846;2022-08-21T05:18:32;20.60;;;15.98;;
62092;SDS011;59819;52.976;6.846;2022-08-21T05:20:58;19.85;;;15.98;;
62092;SDS011;59819;52.976;6.846;2022-08-21T05:23:24;18.60;;;15.60;;
62092;SDS011;59819;52.976;6.846;2022-08-21T05:25:51;21.73;;;16.08;;
62092;SDS011;59819;52.976;6.846;2022-08-21T05:28:17;20.88;;;16.20;;
62092;SDS011;59819;52.976;6.846;2022-08-21T05:30:43;19.95;;;15.55;;
62092;SDS011;59819;52.976;6.846;2022-08-21T05:33:09;19.35;;;15.93;;
62092;SDS011;59819;52.976;6.846;2022-08-21T05:35:35;17.95;;;15.50;;
62092;SDS011;59819;52.976;6.846;2022-08-21T05:38:02;21.77;;;16.20;;
62092;SDS011;59819;52.976;6.846;2022-08-21T05:40:28;18.55;;;15.85;;
62092;SDS011;59819;52.976;6.846;2022-08-21T05:42:55;16.88;;;15.07;;
62092;SDS011;59819;52.976;6.846;2022-08-21T05:45:22;18.15;;;15.27;;
62092;SDS011;59819;52.976;6.846;2022-08-21T05:47:49;17.77;;;15.77;;
62092;SDS011;59819;52.976;6.846;2022-08-21T05:50:15;18.98;;;14.77;;
62092;SDS011;59819;52.976;6.846;2022-08-21T05:52:41;17.80;;;14.32;;
62092;SDS011;59819;52.976;6.846;2022-08-21T05:55:07;18.52;;;14.68;;
62092;SDS011;59819;52.976;6.846;2022-08-21T05:57:33;16.30;;;14.13;;
62092;SDS011;59819;52.976;6.846;2022-08-21T05:59:59;15.95;;;14.32;;
62092;SDS011;59819;52.976;6.846;2022-08-21T06:02:25;17.95;;;15.18;;
62092;SDS011;59819;52.976;6.846;2022-08-21T06:04:51;17.70;;;14.27;;
62092;SDS011;59819;52.976;6.846;2022-08-21T06:07:17;16.33;;;14.40;;
62092;SDS011;59819;52.976;6.846;2022-08-21T06:09:43;16.35;;;14.30;;
62092;SDS011;59819;52.976;6.846;2022-08-21T06:12:11;18.40;;;14.23;;
62092;SDS011;59819;52.976;6.846;2022-08-21T06:14:37;19.00;;;13.35;;
62092;SDS011;59819;52.976;6.846;2022-08-21T06:17:05;16.10;;;12.52;;
62092;SDS011;59819;52.976;6.846;2022-08-21T06:19:31;20.15;;;13.77;;
62092;SDS011;59819;52.976;6.846;2022-08-21T06:21:57;15.73;;;12.20;;
62092;SDS011;59819;52.976;6.846;2022-08-21T06:24:24;17.33;;;12.73;;
62092;SDS011;59819;52.976;6.846;2022-08-21T06:26:50;16.83;;;11.65;;
62092;SDS011;59819;52.976;6.846;2022-08-21T06:29:16;13.30;;;11.90;;
62092;SDS011;59819;52.976;6.846;2022-08-21T06:31:42;18.73;;;11.43;;
62092;SDS011;59819;52.976;6.846;2022-08-21T06:34:09;15.27;;;11.35;;
62092;SDS011;59819;52.976;6.846;2022-08-21T06:36:35;15.95;;;10.88;;
62092;SDS011;59819;52.976;6.846;2022-08-21T06:39:02;14.40;;;10.45;;
62092;SDS011;59819;52.976;6.846;2022-08-21T06:41:29;17.95;;;10.25;;
62092;SDS011;59819;52.976;6.846;2022-08-21T06:43:55;13.43;;;9.93;;
62092;SDS011;59819;52.976;6.846;2022-08-21T06:46:22;17.58;;;10.27;;
62092;SDS011;59819;52.976;6.846;2022-08-21T06:48:48;16.75;;;9.45;;
62092;SDS011;59819;52.976;6.846;2022-08-21T06:51:14;15.15;;;9.93;;
62092;SDS011;59819;52.976;6.846;2022-08-21T06:53:40;14.88;;;9.38;;
62092;SDS011;59819;52.976;6.846;2022-08-21T06:56:06;13.95;;;9.68;;
62092;SDS011;59819;52.976;6.846;2022-08-21T06:58:33;15.25;;;9.27;;
62092;SDS011;59819;52.976;6.846;2022-08-21T07:00:59;13.52;;;8.88;;
62092;SDS011;59819;52.976;6.846;2022-08-21T07:03:26;12.55;;;8.77;;
62092;SDS011;59819;52.976;6.846;2022-08-21T07:05:53;13.65;;;8.38;;
62092;SDS011;59819;52.976;6.846;2022-08-21T07:08:19;13.88;;;8.63;;
62092;SDS011;59819;52.976;6.846;2022-08-21T07:10:46;13.70;;;8.77;;
62092;SDS011;59819;52.976;6.846;2022-08-21T07:13:12;14.25;;;8.75;;
62092;SDS011;59819;52.976;6.846;2022-08-21T07:15:38;12.07;;;8.38;;
62092;SDS011;59819;52.976;6.846;2022-08-21T07:18:04;13.93;;;8.40;;
62092;SDS011;59819;52.976;6.846;2022-08-21T07:20:31;13.30;;;8.10;;
62092;SDS011;59819;52.976;6.846;2022-08-21T07:22:58;14.85;;;7.78;;
62092;SDS011;59819;52.976;6.846;2022-08-21T07:25:25;14.65;;;7.80;;
62092;SDS011;59819;52.976;6.846;2022-08-21T07:27:51;14.30;;;7.80;;
62092;SDS011;59819;52.976;6.846;2022-08-21T07:30:17;16.42;;;8.20;;
62092;SDS011;59819;52.976;6.846;2022-08-21T07:32:43;14.38;;;7.30;;
62092;SDS011;59819;52.976;6.846;2022-08-21T07:35:09;16.73;;;6.82;;
62092;SDS011;59819;52.976;6.846;2022-08-21T07:37:36;14.32;;;6.82;;
62092;SDS011;59819;52.976;6.846;2022-08-21T07:40:02;11.82;;;6.50;;
62092;SDS011;59819;52.976;6.846;2022-08-21T07:42:28;13.77;;;6.25;;
62092;SDS011;59819;52.976;6.846;2022-08-21T07:44:55;13.90;;;6.18;;
62092;SDS011;59819;52.976;6.846;2022-08-21T07:47:21;11.20;;;6.05;;
62092;SDS011;59819;52.976;6.846;2022-08-21T07:49:47;8.52;;;5.07;;
62092;SDS011;59819;52.976;6.846;2022-08-21T07:52:13;11.07;;;4.63;;
62092;SDS011;59819;52.976;6.846;2022-08-21T07:54:40;7.47;;;5.10;;
62092;SDS011;59819;52.976;6.846;2022-08-21T07:57:06;9.35;;;4.93;;
62092;SDS011;59819;52.976;6.846;2022-08-21T07:59:32;8.60;;;4.28;;
62092;SDS011;59819;52.976;6.846;2022-08-21T08:01:58;9.45;;;4.68;;
62092;SDS011;59819;52.976;6.846;2022-08-21T08:04:24;11.57;;;4.35;;
62092;SDS011;59819;52.976;6.846;2022-08-21T08:06:50;10.30;;;4.03;;
62092;SDS011;59819;52.976;6.846;2022-08-21T08:09:16;8.70;;;4.10;;
62092;SDS011;59819;52.976;6.846;2022-08-21T08:11:42;10.32;;;4.18;;
62092;SDS011;59819;52.976;6.846;2022-08-21T08:14:08;7.00;;;3.88;;
62092;SDS011;59819;52.976;6.846;2022-08-21T08:16:35;7.95;;;3.50;;
62092;SDS011;59819;52.976;6.846;2022-08-21T08:19:01;9.90;;;3.70;;
62092;SDS011;59819;52.976;6.846;2022-08-21T08:21:28;10.40;;;3.35;;
62092;SDS011;59819;52.976;6.846;2022-08-21T08:23:55;8.82;;;3.80;;
62092;SDS011;59819;52.976;6.846;2022-08-21T08:26:21;8.95;;;3.78;;
62092;SDS011;59819;52.976;6.846;2022-08-21T08:28:47;7.43;;;3.58;;
62092;SDS011;59819;52.976;6.846;2022-08-21T08:31:13;9.07;;;3.50;;
62092;SDS011;59819;52.976;6.846;2022-08-21T08:33:40;9.00;;;3.58;;
62092;SDS011;59819;52.976;6.846;2022-08-21T08:36:08;8.25;;;3.42;;
62092;SDS011;59819;52.976;6.846;2022-08-21T08:38:37;7.22;;;3.15;;
62092;SDS011;59819;52.976;6.846;2022-08-21T08:41:07;9.38;;;3.88;;
62092;SDS011;59819;52.976;6.846;2022-08-21T08:43:36;7.72;;;3.35;;
62092;SDS011;59819;52.976;6.846;2022-08-21T08:46:04;7.95;;;3.28;;
62092;SDS011;59819;52.976;6.846;2022-08-21T08:51:04;5.90;;;3.45;;
62092;SDS011;59819;52.976;6.846;2022-08-21T08:53:33;6.20;;;3.13;;
62092;SDS011;59819;52.976;6.846;2022-08-21T08:56:02;7.45;;;2.70;;
62092;SDS011;59819;52.976;6.846;2022-08-21T08:58:36;8.40;;;3.30;;
62092;SDS011;59819;52.976;6.846;2022-08-21T09:01:04;6.45;;;2.85;;
62092;SDS011;59819;52.976;6.846;2022-08-21T09:03:31;8.13;;;3.40;;
62092;SDS011;59819;52.976;6.846;2022-08-21T09:06:00;5.63;;;3.15;;
62092;SDS011;59819;52.976;6.846;2022-08-21T09:11:28;6.72;;;3.22;;
62092;SDS011;59819;52.976;6.846;2022-08-21T09:13:59;7.45;;;3.63;;
62092;SDS011;59819;52.976;6.846;2022-08-21T09:21:57;8.50;;;3.33;;
62092;SDS011;59819;52.976;6.846;2022-08-21T09:24:29;7.90;;;3.50;;
62092;SDS011;59819;52.976;6.846;2022-08-21T09:29:24;7.93;;;3.60;;
62092;SDS011;59819;52.976;6.846;2022-08-21T09:31:54;7.53;;;3.40;;
62092;SDS011;59819;52.976;6.846;2022-08-21T09:34:27;11.75;;;3.85;;
62092;SDS011;59819;52.976;6.846;2022-08-21T09:36:53;10.02;;;4.63;;
62092;SDS011;59819;52.976;6.846;2022-08-21T09:39:28;9.10;;;3.60;;
62092;SDS011;59819;52.976;6.846;2022-08-21T09:42:04;6.85;;;3.58;;
62092;SDS011;59819;52.976;6.846;2022-08-21T09:44:32;9.40;;;3.90;;
62092;SDS011;59819;52.976;6.846;2022-08-21T09:46:59;7.15;;;3.72;;
62092;SDS011;59819;52.976;6.846;2022-08-21T09:49:33;7.07;;;3.80;;
62092;SDS011;59819;52.976;6.846;2022-08-21T09:51:59;9.25;;;3.65;;
62092;SDS011;59819;52.976;6.846;2022-08-21T09:54:28;8.38;;;2.80;;
62092;SDS011;59819;52.976;6.846;2022-08-21T09:56:59;8.30;;;3.20;;
62092;SDS011;59819;52.976;6.846;2022-08-21T09:59:45;10.60;;;3.50;;
62092;SDS011;59819;52.976;6.846;2022-08-21T10:02:23;7.32;;;3.30;;
62092;SDS011;59819;52.976;6.846;2022-08-21T10:04:51;7.60;;;2.63;;
62092;SDS011;59819;52.976;6.846;2022-08-21T10:07:19;4.82;;;2.13;;
62092;SDS011;59819;52.976;6.846;2022-08-21T10:09:45;6.65;;;2.50;;
62092;SDS011;59819;52.976;6.846;2022-08-21T10:12:21;3.92;;;2.17;;
62092;SDS011;59819;52.976;6.846;2022-08-21T10:14:57;5.97;;;2.45;;
62092;SDS011;59819;52.976;6.846;2022-08-21T10:17:29;5.63;;;2.65;;
62092;SDS011;59819;52.976;6.846;2022-08-21T10:25:17;7.43;;;2.72;;
62092;SDS011;59819;52.976;6.846;2022-08-21T10:28:00;6.80;;;2.20;;
62092;SDS011;59819;52.976;6.846;2022-08-21T10:30:51;6.57;;;2.10;;
62092;SDS011;59819;52.976;6.846;2022-08-21T10:35:51;6.22;;;1.98;;
62092;SDS011;59819;52.976;6.846;2022-08-21T10:41:08;4.50;;;2.00;;
62092;SDS011;59819;52.976;6.846;2022-08-21T10:43:44;9.05;;;2.20;;
62092;SDS011;59819;52.976;6.846;2022-08-21T10:48:51;5.55;;;2.00;;
62092;SDS011;59819;52.976;6.846;2022-08-21T10:51:22;4.47;;;1.73;;
62092;SDS011;59819;52.976;6.846;2022-08-21T10:56:25;4.93;;;1.73;;
62092;SDS011;59819;52.976;6.846;2022-08-21T11:06:38;4.80;;;1.75;;
62092;SDS011;59819;52.976;6.846;2022-08-21T11:09:13;4.20;;;1.88;;
62092;SDS011;59819;52.976;6.846;2022-08-21T11:11:49;4.82;;;1.70;;
62092;SDS011;59819;52.976;6.846;2022-08-21T11:14:25;6.72;;;1.85;;
62092;SDS011;59819;52.976;6.846;2022-08-21T11:17:07;5.70;;;2.10;;
62092;SDS011;59819;52.976;6.846;2022-08-21T11:24:40;4.75;;;1.67;;
62092;SDS011;59819;52.976;6.846;2022-08-21T11:27:17;3.97;;;1.50;;
62092;SDS011;59819;52.976;6.846;2022-08-21T11:29:45;5.15;;;1.90;;
62092;SDS011;59819;52.976;6.846;2022-08-21T11:40:12;7.07;;;1.73;;
62092;SDS011;59819;52.976;6.846;2022-08-21T11:42:44;4.50;;;1.50;;
62092;SDS011;59819;52.976;6.846;2022-08-21T11:50:21;5.75;;;1.75;;
62092;SDS011;59819;52.976;6.846;2022-08-21T11:52:51;4.68;;;1.50;;
62092;SDS011;59819;52.976;6.846;2022-08-21T11:55:21;4.68;;;1.42;;
62092;SDS011;59819;52.976;6.846;2022-08-21T11:57:59;3.38;;;1.50;;
62092;SDS011;59819;52.976;6.846;2022-08-21T12:00:34;5.60;;;1.80;;
62092;SDS011;59819;52.976;6.846;2022-08-21T12:03:14;5.75;;;1.90;;
62092;SDS011;59819;52.976;6.846;2022-08-21T12:05:52;2.53;;;1.30;;
62092;SDS011;59819;52.976;6.846;2022-08-21T12:08:32;5.55;;;1.60;;
62092;SDS011;59819;52.976;6.846;2022-08-21T12:11:08;3.65;;;1.58;;
62092;SDS011;59819;52.976;6.846;2022-08-21T12:13:36;5.70;;;1.90;;
62092;SDS011;59819;52.976;6.846;2022-08-21T12:16:07;7.93;;;2.15;;
62092;SDS011;59819;52.976;6.846;2022-08-21T12:18:33;3.93;;;1.70;;
62092;SDS011;59819;52.976;6.846;2022-08-21T12:23:44;4.10;;;1.90;;
62092;SDS011;59819;52.976;6.846;2022-08-21T12:26:24;5.03;;;2.00;;
62092;SDS011;59819;52.976;6.846;2022-08-21T12:31:22;4.35;;;1.80;;
62092;SDS011;59819;52.976;6.846;2022-08-21T12:33:54;5.30;;;2.15;;
62092;SDS011;59819;52.976;6.846;2022-08-21T12:36:23;4.55;;;2.00;;
62092;SDS011;59819;52.976;6.846;2022-08-21T12:38:52;4.50;;;1.77;;
62092;SDS011;59819;52.976;6.846;2022-08-21T12:41:30;5.40;;;1.83;;
62092;SDS011;59819;52.976;6.846;2022-08-21T12:43:59;3.88;;;2.10;;
62092;SDS011;59819;52.976;6.846;2022-08-21T12:46:34;5.57;;;2.00;;
62092;SDS011;59819;52.976;6.846;2022-08-21T12:49:48;4.95;;;1.98;;
62092;SDS011;59819;52.976;6.846;2022-08-21T12:51:54;3.70;;;1.90;;
62092;SDS011;59819;52.976;6.846;2022-08-21T12:54:22;5.00;;;1.70;;
62092;SDS011;59819;52.976;6.846;2022-08-21T12:56:55;4.00;;;1.70;;
62092;SDS011;59819;52.976;6.846;2022-08-21T12:59:21;6.07;;;2.13;;
62092;SDS011;59819;52.976;6.846;2022-08-21T13:01:48;7.28;;;2.28;;
62092;SDS011;59819;52.976;6.846;2022-08-21T13:04:16;8.02;;;2.30;;
62092;SDS011;59819;52.976;6.846;2022-08-21T13:06:46;6.15;;;2.20;;
62092;SDS011;59819;52.976;6.846;2022-08-21T13:09:14;11.63;;;2.20;;
62092;SDS011;59819;52.976;6.846;2022-08-21T13:11:41;6.18;;;2.22;;
62092;SDS011;59819;52.976;6.846;2022-08-21T13:14:14;5.38;;;2.30;;
62092;SDS011;59819;52.976;6.846;2022-08-21T13:16:41;5.93;;;2.30;;
62092;SDS011;59819;52.976;6.846;2022-08-21T13:19:11;4.95;;;2.22;;
62092;SDS011;59819;52.976;6.846;2022-08-21T13:21:41;9.38;;;2.70;;
62092;SDS011;59819;52.976;6.846;2022-08-21T13:26:46;6.75;;;2.65;;
62092;SDS011;59819;52.976;6.846;2022-08-21T13:29:16;5.15;;;2.83;;
62092;SDS011;59819;52.976;6.846;2022-08-21T13:31:47;6.95;;;2.75;;
62092;SDS011;59819;52.976;6.846;2022-08-21T13:36:41;6.85;;;3.72;;
62092;SDS011;59819;52.976;6.846;2022-08-21T13:39:08;19.77;;;5.10;;
62092;SDS011;59819;52.976;6.846;2022-08-21T13:41:35;13.00;;;4.93;;
62092;SDS011;59819;52.976;6.846;2022-08-21T13:44:04;9.05;;;4.78;;
62092;SDS011;59819;52.976;6.846;2022-08-21T13:46:33;10.15;;;4.85;;
62092;SDS011;59819;52.976;6.846;2022-08-21T13:49:00;9.18;;;5.50;;
62092;SDS011;59819;52.976;6.846;2022-08-21T13:51:28;9.55;;;5.50;;
62092;SDS011;59819;52.976;6.846;2022-08-21T13:53:54;13.10;;;5.88;;
62092;SDS011;59819;52.976;6.846;2022-08-21T13:56:32;13.57;;;5.75;;
62092;SDS011;59819;52.976;6.846;2022-08-21T13:58:59;10.32;;;4.78;;
62092;SDS011;59819;52.976;6.846;2022-08-21T14:01:33;9.15;;;4.70;;
62092;SDS011;59819;52.976;6.846;2022-08-21T14:04:12;10.32;;;5.93;;
62092;SDS011;59819;52.976;6.846;2022-08-21T14:06:41;9.33;;;4.63;;
62092;SDS011;59819;52.976;6.846;2022-08-21T14:09:12;10.90;;;4.97;;
62092;SDS011;59819;52.976;6.846;2022-08-21T14:11:38;11.07;;;5.40;;
62092;SDS011;59819;52.976;6.846;2022-08-21T14:14:24;7.35;;;4.80;;
62092;SDS011;59819;52.976;6.846;2022-08-21T14:16:55;7.10;;;4.10;;
62092;SDS011;59819;52.976;6.846;2022-08-21T14:19:23;7.45;;;3.83;;
62092;SDS011;59819;52.976;6.846;2022-08-21T14:21:49;9.88;;;4.32;;
62092;SDS011;59819;52.976;6.846;2022-08-21T14:29:21;9.38;;;3.50;;
62092;SDS011;59819;52.976;6.846;2022-08-21T14:31:51;9.30;;;4.00;;
62092;SDS011;59819;52.976;6.846;2022-08-21T14:34:17;7.72;;;3.83;;
62092;SDS011;59819;52.976;6.846;2022-08-21T14:36:44;7.07;;;3.42;;
62092;SDS011;59819;52.976;6.846;2022-08-21T14:39:10;5.95;;;3.10;;
62092;SDS011;59819;52.976;6.846;2022-08-21T14:41:36;6.88;;;3.40;;
62092;SDS011;59819;52.976;6.846;2022-08-21T14:44:02;8.35;;;3.42;;
62092;SDS011;59819;52.976;6.846;2022-08-21T14:46:29;7.93;;;3.38;;
62092;SDS011;59819;52.976;6.846;2022-08-21T14:48:57;7.70;;;3.22;;
62092;SDS011;59819;52.976;6.846;2022-08-21T14:51:23;6.60;;;3.60;;
62092;SDS011;59819;52.976;6.846;2022-08-21T14:53:49;9.70;;;3.60;;
62092;SDS011;59819;52.976;6.846;2022-08-21T14:56:15;8.05;;;3.40;;
62092;SDS011;59819;52.976;6.846;2022-08-21T14:58:43;8.23;;;3.50;;
62092;SDS011;59819;52.976;6.846;2022-08-21T15:01:11;7.30;;;3.40;;
62092;SDS011;59819;52.976;6.846;2022-08-21T15:03:37;6.50;;;3.45;;
62092;SDS011;59819;52.976;6.846;2022-08-21T15:06:04;8.77;;;3.60;;
62092;SDS011;59819;52.976;6.846;2022-08-21T15:08:30;7.35;;;3.00;;
62092;SDS011;59819;52.976;6.846;2022-08-21T15:10:57;6.15;;;3.10;;
62092;SDS011;59819;52.976;6.846;2022-08-21T15:13:23;3.95;;;2.65;;
62092;SDS011;59819;52.976;6.846;2022-08-21T15:15:50;6.25;;;2.63;;
62092;SDS011;59819;52.976;6.846;2022-08-21T15:18:21;8.25;;;2.80;;
62092;SDS011;59819;52.976;6.846;2022-08-21T15:20:47;6.60;;;2.67;;
62092;SDS011;59819;52.976;6.846;2022-08-21T15:23:13;7.22;;;2.78;;
62092;SDS011;59819;52.976;6.846;2022-08-21T15:25:40;6.07;;;2.65;;
62092;SDS011;59819;52.976;6.846;2022-08-21T15:28:07;5.88;;;2.95;;
62092;SDS011;59819;52.976;6.846;2022-08-21T15:30:33;5.45;;;2.75;;
62092;SDS011;59819;52.976;6.846;2022-08-21T15:32:59;5.35;;;2.70;;
62092;SDS011;59819;52.976;6.846;2022-08-21T15:35:25;4.90;;;2.50;;
62092;SDS011;59819;52.976;6.846;2022-08-21T15:37:51;6.43;;;3.00;;
62092;SDS011;59819;52.976;6.846;2022-08-21T15:40:17;7.35;;;2.60;;
62092;SDS011;59819;52.976;6.846;2022-08-21T15:42:43;7.53;;;2.50;;
62092;SDS011;59819;52.976;6.846;2022-08-21T15:45:10;5.28;;;2.42;;
62092;SDS011;59819;52.976;6.846;2022-08-21T15:47:37;7.03;;;3.03;;
62092;SDS011;59819;52.976;6.846;2022-08-21T15:50:05;6.13;;;2.63;;
62092;SDS011;59819;52.976;6.846;2022-08-21T15:52:32;5.53;;;2.65;;